createdAt,value
2023-04-27T00:00:36.494Z,19278.0723
2023-04-27T00:01:44.558Z,19277.3574
2023-04-27T00:02:52.801Z,19276.0000
2023-04-27T00:04:00.853Z,19275.1426
2023-04-27T00:05:09.095Z,19273.2852
2023-04-27T00:06:16.978Z,19275.3574
2023-04-27T00:07:24.910Z,19275.7852
2023-04-27T00:08:32.844Z,19274.5000
2023-04-27T00:09:40.891Z,19272.2852
2023-04-27T00:10:48.964Z,19276.0000
2023-04-27T00:11:57.180Z,19274.5000
2023-04-27T00:13:05.179Z,19274.0000
2023-04-27T00:14:13.277Z,19272.3574
2023-04-27T00:15:21.341Z,19274.2852
2023-04-27T00:16:29.434Z,19270.2148
2023-04-27T00:17:37.506Z,19270.3574
2023-04-27T00:18:45.499Z,19269.7148
2023-04-27T00:19:53.561Z,19267.7852
2023-04-27T00:21:01.665Z,19266.3574
2023-04-27T00:22:09.735Z,19264.6426
2023-04-27T00:23:17.634Z,19264.2148
2023-04-27T00:24:25.693Z,19264.3574
2023-04-27T00:25:33.739Z,19263.2148
2023-04-27T00:26:41.999Z,19263.7148
2023-04-27T00:27:50.051Z,19263.9277
2023-04-27T00:28:58.098Z,19264.8574
2023-04-27T00:30:06.158Z,19265.8574
2023-04-27T00:31:14.158Z,19262.9277
2023-04-27T00:32:22.283Z,19267.0000
2023-04-27T00:33:30.352Z,19267.5000
2023-04-27T00:34:38.342Z,19263.2148
2023-04-27T00:35:46.423Z,19265.2852
2023-04-27T00:36:54.477Z,19262.3574
2023-04-27T00:38:02.409Z,19262.2852
2023-04-27T00:39:10.523Z,19260.9277
2023-04-27T00:40:18.554Z,19263.2148
2023-04-27T00:41:27.062Z,19263.6426
2023-04-27T00:42:34.805Z,19263.9277
2023-04-27T00:43:43.078Z,19264.5723
2023-04-27T00:44:50.966Z,19261.7852
2023-04-27T00:45:58.996Z,19264.5723
2023-04-27T00:47:07.260Z,19267.0723
2023-04-27T00:48:15.103Z,19264.1426
2023-04-27T00:49:23.211Z,19264.6426
2023-04-27T00:50:31.301Z,19266.1426
2023-04-27T00:51:39.295Z,19268.5723
2023-04-27T00:52:47.265Z,19268.1426
2023-04-27T00:53:55.326Z,19270.1426
2023-04-27T00:55:03.391Z,19266.7852
2023-04-27T00:56:11.856Z,19266.7148
2023-04-27T00:57:19.606Z,19267.0000
2023-04-27T00:58:27.726Z,19272.4277
2023-04-27T00:59:35.767Z,19274.0723
2023-04-27T01:00:43.824Z,19275.7852
2023-04-27T01:01:51.918Z,19275.5000
2023-04-27T01:03:00.056Z,19273.0723
2023-04-27T01:04:08.267Z,19273.7148
2023-04-27T01:05:16.068Z,19271.1426
2023-04-27T01:06:24.112Z,19270.5723
2023-04-27T01:07:32.109Z,19266.6426
2023-04-27T01:08:40.154Z,19264.2852
2023-04-27T01:09:48.217Z,19262.1426
2023-04-27T01:10:56.346Z,19267.6426
2023-04-27T01:12:04.621Z,19266.7148
2023-04-27T01:13:12.658Z,19266.7852
2023-04-27T01:14:20.572Z,19268.8574
2023-04-27T01:15:28.695Z,19268.0723
2023-04-27T01:16:36.802Z,19268.7148
2023-04-27T01:17:44.792Z,19273.6426
2023-04-27T01:18:53.028Z,19271.3574
2023-04-27T01:20:00.905Z,19273.5723
2023-04-27T01:21:08.966Z,19275.0723
2023-04-27T01:22:16.901Z,19271.0723
2023-04-27T01:23:25.002Z,19271.7148
2023-04-27T01:24:33.072Z,19272.3574
2023-04-27T01:25:41.232Z,19273.2852
2023-04-27T01:26:49.361Z,19272.0723
2023-04-27T01:27:57.493Z,19269.9277
2023-04-27T01:29:05.422Z,19271.1426
2023-04-27T01:30:13.492Z,19271.9277
2023-04-27T01:31:21.593Z,19271.0723
2023-04-27T01:32:29.631Z,19272.4277
2023-04-27T01:33:37.670Z,19272.1426
2023-04-27T01:34:45.748Z,19269.5000
2023-04-27T01:35:53.954Z,19270.5723
2023-04-27T01:37:01.743Z,19268.2148
2023-04-27T01:38:09.817Z,19267.2852
2023-04-27T01:39:17.878Z,19268.2852
2023-04-27T01:40:26.125Z,19269.7852
2023-04-27T01:41:34.175Z,19267.6426
2023-04-27T01:42:42.451Z,19267.5723
2023-04-27T01:43:50.370Z,19265.0000
2023-04-27T01:44:58.321Z,19263.9277
2023-04-27T01:46:06.399Z,19260.8574
2023-04-27T01:47:14.473Z,19259.5723
2023-04-27T01:48:22.465Z,19260.2852
2023-04-27T01:49:30.604Z,19259.8574
2023-04-27T01:50:38.661Z,19261.9277
2023-04-27T01:51:46.548Z,19261.0000
2023-04-27T01:52:54.661Z,19263.7148
2023-04-27T01:54:02.662Z,19260.0723
2023-04-27T01:55:11.030Z,19261.4277
2023-04-27T01:56:18.934Z,19261.1426
2023-04-27T01:57:27.076Z,19267.5000
2023-04-27T01:58:35.133Z,19266.0000
2023-04-27T01:59:43.235Z,19264.0000
2023-04-27T02:00:51.204Z,19264.5723
2023-04-27T02:01:59.289Z,19263.4277
2023-04-27T02:03:07.483Z,19262.1426
2023-04-27T02:04:15.719Z,19263.2852
2023-04-27T02:05:23.322Z,19266.5723
2023-04-27T02:06:31.407Z,19264.9277
2023-04-27T02:07:39.462Z,19268.5723
2023-04-27T02:08:47.773Z,19272.8574
2023-04-27T02:09:55.797Z,19267.9277
2023-04-27T02:11:03.762Z,19268.2148
2023-04-27T02:12:11.946Z,19266.2852
2023-04-27T02:13:19.888Z,19268.6426
2023-04-27T02:14:27.971Z,19265.9277
2023-04-27T02:15:36.152Z,19270.1426
2023-04-27T02:16:44.113Z,19271.0000
2023-04-27T02:17:52.192Z,19267.7148
2023-04-27T02:19:00.215Z,19269.4277
2023-04-27T02:20:08.153Z,19265.8574
2023-04-27T02:21:16.245Z,19267.2852
2023-04-27T02:22:24.271Z,19268.7852
2023-04-27T02:23:32.449Z,19268.7852
2023-04-27T02:24:40.640Z,19266.7852
2023-04-27T02:25:48.580Z,19267.5000
2023-04-27T02:26:56.849Z,19264.6426
2023-04-27T02:28:04.692Z,19263.4277
2023-04-27T02:29:13.060Z,19264.7852
2023-04-27T02:30:20.889Z,19265.0723
2023-04-27T02:31:29.056Z,19264.5000
2023-04-27T02:32:36.997Z,19264.2852
2023-04-27T02:33:44.997Z,19260.1426
2023-04-27T02:34:52.959Z,19259.8574
2023-04-27T02:36:01.008Z,19260.4277
2023-04-27T02:37:09.033Z,19259.2148
2023-04-27T02:38:17.299Z,19258.9277
2023-04-27T02:39:25.309Z,19256.9277
2023-04-27T02:40:33.504Z,19255.2852
2023-04-27T02:41:41.457Z,19257.7148
2023-04-27T02:42:49.522Z,19262.5723
2023-04-27T02:43:57.606Z,19260.6426
2023-04-27T02:45:05.675Z,19263.4277
2023-04-27T02:46:13.740Z,19264.0000
2023-04-27T02:47:21.762Z,19265.1426
2023-04-27T02:48:29.926Z,19264.6426
2023-04-27T02:49:38.176Z,19267.9277
2023-04-27T02:50:45.793Z,19268.3574
2023-04-27T02:51:53.863Z,19269.1426
2023-04-27T02:53:02.082Z,19271.0723
2023-04-27T02:54:10.143Z,19274.2148
2023-04-27T02:55:18.257Z,19273.5723
2023-04-27T02:56:26.425Z,19273.7852
2023-04-27T02:57:34.305Z,19280.2148
2023-04-27T02:58:42.393Z,19277.7852
2023-04-27T02:59:50.459Z,19277.2148
2023-04-27T03:00:58.561Z,19277.0000
2023-04-27T03:02:06.587Z,19281.1426
2023-04-27T03:03:14.905Z,19281.0723
2023-04-27T03:04:22.624Z,19281.7148
2023-04-27T03:05:30.630Z,19286.0000
2023-04-27T03:06:38.707Z,19284.5000
2023-04-27T03:07:46.934Z,19281.3574
2023-04-27T03:08:54.955Z,19285.7148
2023-04-27T03:10:02.969Z,19282.0723
2023-04-27T03:11:11.113Z,19281.6426
2023-04-27T03:12:19.300Z,19280.0723
2023-04-27T03:13:27.198Z,19279.2852
2023-04-27T03:14:35.252Z,19275.4277
2023-04-27T03:15:43.549Z,19280.2148
2023-04-27T03:16:51.511Z,19281.8574
2023-04-27T03:17:59.521Z,19282.0723
2023-04-27T03:19:07.385Z,19282.8574
2023-04-27T03:20:15.440Z,19282.6426
2023-04-27T03:21:23.476Z,19281.0000
2023-04-27T03:22:31.748Z,19280.6426
2023-04-27T03:23:39.775Z,19280.2148
2023-04-27T03:24:47.841Z,19280.0000
2023-04-27T03:25:55.916Z,19283.1426
2023-04-27T03:27:03.904Z,19278.7148
2023-04-27T03:28:12.126Z,19282.8574
2023-04-27T03:29:20.095Z,19279.5000
2023-04-27T03:30:28.134Z,19280.2148
2023-04-27T03:31:36.236Z,19282.1426
2023-04-27T03:32:47.039Z,19280.7148
2023-04-27T03:33:57.063Z,19283.9336
2023-04-27T03:35:05.134Z,19283.7852
2023-04-27T03:36:13.165Z,19283.3574
2023-04-27T03:37:21.345Z,19283.4277
2023-04-27T03:38:29.421Z,19280.7148
2023-04-27T03:39:37.484Z,19280.5723
2023-04-27T03:40:45.582Z,19281.0000
2023-04-27T03:41:53.668Z,19279.6426
2023-04-27T03:43:01.685Z,19278.5000
2023-04-27T03:44:09.852Z,19277.8574
2023-04-27T03:45:17.782Z,19276.9277
2023-04-27T03:46:25.979Z,19277.6426
2023-04-27T03:47:33.977Z,19279.1426
2023-04-27T03:48:41.829Z,19281.8574
2023-04-27T03:49:49.914Z,19283.7148
2023-04-27T03:50:58.056Z,19283.8574
2023-04-27T03:52:06.208Z,19286.7852
2023-04-27T03:53:14.225Z,19285.5723
2023-04-27T03:54:22.245Z,19289.2852
2023-04-27T03:55:30.353Z,19292.3574
2023-04-27T03:56:38.481Z,19294.2148
2023-04-27T03:57:46.586Z,19293.7852
2023-04-27T03:58:54.591Z,19292.4277
2023-04-27T04:00:02.687Z,19290.8574
2023-04-27T04:01:11.116Z,19292.4277
2023-04-27T04:02:18.709Z,19291.5000
2023-04-27T04:03:26.958Z,19293.2148
2023-04-27T04:04:34.953Z,19294.2852
2023-04-27T04:05:42.911Z,19294.0000
2023-04-27T04:06:51.025Z,19289.3574
2023-04-27T04:07:59.039Z,19287.8574
2023-04-27T04:09:07.285Z,19289.1426
2023-04-27T04:10:15.161Z,19287.7148
2023-04-27T04:11:23.264Z,19288.0000
2023-04-27T04:12:31.314Z,19283.5723
2023-04-27T04:13:39.422Z,19286.6426
2023-04-27T04:14:47.535Z,19283.2852
2023-04-27T04:15:55.658Z,19287.4277
2023-04-27T04:17:03.449Z,19289.7852
2023-04-27T04:18:11.555Z,19286.4277
2023-04-27T04:19:20.760Z,19285.5000
2023-04-27T04:20:32.677Z,19285.0000
2023-04-27T04:21:40.683Z,19280.3574
2023-04-27T04:22:48.777Z,19282.5723
2023-04-27T04:23:56.845Z,19282.1426
2023-04-27T04:25:04.962Z,19284.0000
2023-04-27T04:26:12.974Z,19287.4277
2023-04-27T04:27:20.988Z,19288.8574
2023-04-27T04:28:29.015Z,19293.9277
2023-04-27T04:29:37.082Z,19298.9277
2023-04-27T04:30:45.019Z,19300.7148
2023-04-27T04:31:53.176Z,19304.7148
2023-04-27T04:33:01.177Z,19309.0723
2023-04-27T04:34:09.342Z,19312.1426
2023-04-27T04:35:17.392Z,19316.0000
2023-04-27T04:36:25.428Z,19314.0000
2023-04-27T04:37:33.537Z,19312.6426
2023-04-27T04:38:41.583Z,19310.2852
2023-04-27T04:39:49.655Z,19306.4277
2023-04-27T04:40:57.833Z,19303.8574
2023-04-27T04:42:05.810Z,19301.2148
2023-04-27T04:43:13.801Z,19295.5723
2023-04-27T04:44:21.865Z,19293.7852
2023-04-27T04:45:29.812Z,19292.2852
2023-04-27T04:46:37.947Z,19288.9277
2023-04-27T04:47:45.938Z,19288.7148
2023-04-27T04:48:54.847Z,19287.5000
2023-04-27T04:50:02.418Z,19286.2852
2023-04-27T04:51:10.216Z,19286.9277
2023-04-27T04:52:18.438Z,19289.7852
2023-04-27T04:53:26.280Z,19281.8574
2023-04-27T04:54:34.414Z,19283.2148
2023-04-27T04:55:42.475Z,19278.7148
2023-04-27T04:56:50.632Z,19279.5723
2023-04-27T04:57:58.622Z,19278.2852
2023-04-27T04:59:06.571Z,19277.8574
2023-04-27T05:00:14.603Z,19275.9277
2023-04-27T05:01:22.673Z,19270.3574
2023-04-27T05:02:30.756Z,19272.7148
2023-04-27T05:03:38.960Z,19273.0000
2023-04-27T05:04:47.143Z,19270.8574
2023-04-27T05:05:55.113Z,19267.2852
2023-04-27T05:07:03.090Z,19268.9277
2023-04-27T05:08:11.062Z,19270.6426
2023-04-27T05:09:19.178Z,19269.8574
2023-04-27T05:10:27.194Z,19270.9277
2023-04-27T05:11:35.353Z,19272.5723
2023-04-27T05:12:43.356Z,19274.0723
2023-04-27T05:13:51.477Z,19271.5000
2023-04-27T05:14:59.338Z,19272.6426
2023-04-27T05:16:07.468Z,19271.7148
2023-04-27T05:17:15.493Z,19274.3574
2023-04-27T05:18:23.633Z,19274.5000
2023-04-27T05:19:31.776Z,19274.6426
2023-04-27T05:20:39.735Z,19274.1426
2023-04-27T05:21:47.987Z,19271.2852
2023-04-27T05:22:55.889Z,19273.4277
2023-04-27T05:24:03.927Z,19271.0723
2023-04-27T05:25:12.097Z,19268.7852
2023-04-27T05:26:20.045Z,19265.6426
2023-04-27T05:27:28.096Z,19261.3574
2023-04-27T05:28:36.177Z,19258.0723
2023-04-27T05:29:44.103Z,19253.7148
2023-04-27T05:30:52.201Z,19250.0000
2023-04-27T05:32:00.357Z,19250.0000
2023-04-27T05:33:08.449Z,19245.7148
2023-04-27T05:34:16.597Z,19243.8574
2023-04-27T05:35:24.569Z,19246.2852
2023-04-27T05:36:32.609Z,19242.1426
2023-04-27T05:37:40.572Z,19239.7852
2023-04-27T05:38:48.693Z,19238.9277
2023-04-27T05:39:56.813Z,19236.7148
2023-04-27T05:41:04.826Z,19236.7852
2023-04-27T05:42:12.867Z,19233.0000
2023-04-27T05:43:20.963Z,19230.2148
2023-04-27T05:44:28.911Z,19229.4277
2023-04-27T05:45:37.005Z,19225.5000
2023-04-27T05:46:45.013Z,19225.4277
2023-04-27T05:47:53.232Z,19218.7148
2023-04-27T05:49:01.361Z,19221.4277
2023-04-27T05:50:09.353Z,19218.2148
2023-04-27T05:51:17.394Z,19220.6426
2023-04-27T05:52:25.375Z,19217.2148
2023-04-27T05:53:33.496Z,19211.9277
2023-04-27T05:54:41.487Z,19211.0723
2023-04-27T05:55:49.682Z,19213.6426
2023-04-27T05:56:57.704Z,19208.0000
2023-04-27T05:58:08.963Z,19204.2852
2023-04-27T05:59:18.470Z,19201.0664
2023-04-27T06:00:26.554Z,19200.4277
2023-04-27T06:01:34.588Z,19202.4277
2023-04-27T06:02:42.956Z,19201.3574
2023-04-27T06:03:50.924Z,19198.5723
2023-04-27T06:04:59.086Z,19202.0000
2023-04-27T06:06:06.904Z,19205.7148
2023-04-27T06:07:16.153Z,19206.6426
2023-04-27T06:08:23.112Z,19207.7852
2023-04-27T06:09:31.069Z,19207.2852
2023-04-27T06:10:39.108Z,19205.0723
2023-04-27T06:11:47.233Z,19204.9277
2023-04-27T06:12:55.347Z,19202.4277
2023-04-27T06:14:03.255Z,19198.6426
2023-04-27T06:15:11.287Z,19197.9277
2023-04-27T06:16:19.449Z,19194.7852
2023-04-27T06:17:27.508Z,19191.0723
2023-04-27T06:18:35.559Z,19191.2852
2023-04-27T06:19:43.646Z,19188.8574
2023-04-27T06:20:51.790Z,19187.7148
2023-04-27T06:21:59.709Z,19188.6426
2023-04-27T06:23:07.789Z,19186.7148
2023-04-27T06:24:15.848Z,19187.0723
2023-04-27T06:25:27.074Z,19188.6426
2023-04-27T06:26:36.862Z,19188.6660
2023-04-27T06:27:44.788Z,19185.2852
2023-04-27T06:28:52.847Z,19184.0000
2023-04-27T06:30:01.043Z,19183.0723
2023-04-27T06:31:09.109Z,19179.6426
2023-04-27T06:32:17.081Z,19179.0000
2023-04-27T06:33:25.109Z,19175.8574
2023-04-27T06:34:33.174Z,19174.5000
2023-04-27T06:35:41.250Z,19174.5000
2023-04-27T06:36:49.338Z,19174.0723
2023-04-27T06:37:57.471Z,19176.1426
2023-04-27T06:39:05.409Z,19174.3574
2023-04-27T06:40:13.485Z,19172.7852
2023-04-27T06:41:21.659Z,19172.7852
2023-04-27T06:42:29.588Z,19172.7148
2023-04-27T06:43:37.569Z,19171.7148
2023-04-27T06:44:45.705Z,19170.7852
2023-04-27T06:45:53.906Z,19172.0723
2023-04-27T06:47:01.848Z,19175.2148
2023-04-27T06:48:10.012Z,19177.8574
2023-04-27T06:49:17.939Z,19180.0000
2023-04-27T06:50:26.027Z,19182.8574
2023-04-27T06:51:34.120Z,19185.0723
2023-04-27T06:52:42.320Z,19184.4277
2023-04-27T06:53:50.258Z,19181.0723
2023-04-27T06:54:58.278Z,19179.8574
2023-04-27T06:56:06.309Z,19176.5723
2023-04-27T06:57:14.310Z,19175.1426
2023-04-27T06:58:22.359Z,19173.7148
2023-04-27T06:59:30.412Z,19169.0723
2023-04-27T07:00:38.518Z,19168.0723
2023-04-27T07:01:46.561Z,19168.5723
2023-04-27T07:02:54.673Z,19167.7148
2023-04-27T07:04:02.780Z,19164.8574
2023-04-27T07:05:10.721Z,19165.2852
2023-04-27T07:06:18.833Z,19167.5000
2023-04-27T07:07:26.909Z,19163.7852
2023-04-27T07:08:35.034Z,19166.7852
2023-04-27T07:09:43.113Z,19168.7852
2023-04-27T07:10:51.136Z,19168.9277
2023-04-27T07:11:59.226Z,19172.2852
2023-04-27T07:13:09.119Z,19176.4277
2023-04-27T07:14:20.077Z,19176.8672
2023-04-27T07:15:28.154Z,19173.0723
2023-04-27T07:16:36.274Z,19177.5723
2023-04-27T07:17:44.261Z,19180.0000
2023-04-27T07:18:52.336Z,19179.5723
2023-04-27T07:20:00.376Z,19180.5000
2023-04-27T07:21:08.549Z,19181.2852
2023-04-27T07:22:16.518Z,19178.2852
2023-04-27T07:23:24.569Z,19178.6426
2023-04-27T07:24:32.690Z,19177.3574
2023-04-27T07:25:40.563Z,19176.6426
2023-04-27T07:26:48.654Z,19174.7148
2023-04-27T07:27:56.704Z,19175.5723
2023-04-27T07:29:14.439Z,19171.0723
2023-04-27T07:30:17.910Z,19174.0000
2023-04-27T07:31:26.301Z,19174.5723
2023-04-27T07:32:33.983Z,19175.9277
2023-04-27T07:33:42.006Z,19178.5000
2023-04-27T07:34:54.082Z,19176.5723
2023-04-27T07:36:02.922Z,19173.7324
2023-04-27T07:37:11.027Z,19175.3574
2023-04-27T07:38:18.976Z,19175.7852
2023-04-27T07:39:27.057Z,19172.4277
2023-04-27T07:40:35.059Z,19172.3574
2023-04-27T07:41:43.223Z,19173.7148
2023-04-27T07:42:51.289Z,19170.4277
2023-04-27T07:43:59.395Z,19171.2148
2023-04-27T07:45:07.514Z,19172.6426
2023-04-27T07:46:15.459Z,19171.3574
2023-04-27T07:47:23.574Z,19169.3574
2023-04-27T07:48:31.544Z,19167.1426
2023-04-27T07:49:39.642Z,19164.7852
2023-04-27T07:50:47.646Z,19166.7852
2023-04-27T07:51:55.782Z,19166.0723
2023-04-27T07:53:03.791Z,19167.3574
2023-04-27T07:54:11.774Z,19161.3574
2023-04-27T07:55:19.859Z,19158.0723
2023-04-27T07:56:28.055Z,19163.5000
2023-04-27T07:57:36.139Z,19158.0723
2023-04-27T07:58:44.076Z,19161.8574
2023-04-27T07:59:52.184Z,19160.5723
2023-04-27T08:01:00.194Z,19165.6426
2023-04-27T08:02:19.113Z,19168.7852
2023-04-27T08:03:21.231Z,19169.7324
2023-04-27T08:04:29.406Z,19169.6426
2023-04-27T08:05:37.490Z,19173.5000
2023-04-27T08:06:45.880Z,19173.1426
2023-04-27T08:07:53.990Z,19167.8574
2023-04-27T08:09:01.550Z,19168.1426
2023-04-27T08:10:09.589Z,19170.7148
2023-04-27T08:11:17.629Z,19168.1426
2023-04-27T08:12:25.639Z,19168.3574
2023-04-27T08:13:33.893Z,19167.5000
2023-04-27T08:14:41.753Z,19164.0000
2023-04-27T08:15:49.825Z,19158.0723
2023-04-27T08:16:58.027Z,19152.8574
2023-04-27T08:18:05.991Z,19148.2852
2023-04-27T08:19:14.207Z,19144.0000
2023-04-27T08:20:21.937Z,19135.2148
2023-04-27T08:21:29.989Z,19125.7148
2023-04-27T08:22:38.063Z,19120.8574
2023-04-27T08:23:46.106Z,19117.9277
2023-04-27T08:24:54.211Z,19118.0723
2023-04-27T08:26:02.311Z,19116.8574
2023-04-27T08:27:10.264Z,19111.8574
2023-04-27T08:28:18.428Z,19107.4277
2023-04-27T08:29:28.813Z,19105.3574
2023-04-27T08:30:39.482Z,19101.5332
2023-04-27T08:31:47.529Z,19098.7148
2023-04-27T08:32:55.559Z,19100.0000
2023-04-27T08:34:03.449Z,19101.7852
2023-04-27T08:35:11.546Z,19099.7852
2023-04-27T08:36:19.584Z,19106.1426
2023-04-27T08:37:27.753Z,19111.9277
2023-04-27T08:38:35.842Z,19121.1426
2023-04-27T08:39:43.804Z,19123.2852
2023-04-27T08:40:51.897Z,19129.2148
2023-04-27T08:42:00.014Z,19126.3574
2023-04-27T08:43:08.008Z,19127.6426
2023-04-27T08:44:16.107Z,19130.0000
2023-04-27T08:45:24.115Z,19129.4277
2023-04-27T08:46:32.163Z,19126.0723
2023-04-27T08:47:43.421Z,19121.9277
2023-04-27T08:48:53.059Z,19121.0000
2023-04-27T08:50:01.121Z,19116.7148
2023-04-27T08:51:09.121Z,19119.0000
2023-04-27T08:52:17.356Z,19117.0000
2023-04-27T08:53:25.404Z,19118.1426
2023-04-27T08:54:33.313Z,19115.1426
2023-04-27T08:55:41.496Z,19111.5723
2023-04-27T08:56:49.519Z,19109.7852
2023-04-27T08:57:57.590Z,19104.6426
2023-04-27T08:59:05.661Z,19097.4277
2023-04-27T09:00:13.711Z,19097.1426
2023-04-27T09:01:21.944Z,19096.5000
2023-04-27T09:02:30.036Z,19097.2852
2023-04-27T09:03:37.995Z,19097.7148
2023-04-27T09:04:45.909Z,19099.8574
2023-04-27T09:06:04.369Z,19100.5000
2023-04-27T09:07:06.897Z,19098.3340
2023-04-27T09:08:14.975Z,19101.0000
2023-04-27T09:09:23.008Z,19097.5723
2023-04-27T09:10:31.283Z,19097.7148
2023-04-27T09:11:39.165Z,19095.2148
2023-04-27T09:12:47.222Z,19092.1426
2023-04-27T09:13:55.225Z,19094.2148
2023-04-27T09:15:03.308Z,19093.7852
2023-04-27T09:16:11.523Z,19092.6426
2023-04-27T09:17:19.339Z,19093.0723
2023-04-27T09:18:27.321Z,19093.3574
2023-04-27T09:19:35.406Z,19091.9277
2023-04-27T09:20:43.552Z,19093.6426
2023-04-27T09:21:51.714Z,19092.0723
2023-04-27T09:22:59.871Z,19093.1426
2023-04-27T09:24:07.744Z,19093.5723
2023-04-27T09:25:15.779Z,19095.7148
2023-04-27T09:26:23.795Z,19093.8574
2023-04-27T09:27:31.824Z,19092.1426
2023-04-27T09:28:39.944Z,19089.1426
2023-04-27T09:29:48.192Z,19087.9277
2023-04-27T09:30:56.055Z,19090.3574
2023-04-27T09:32:04.181Z,19092.0723
2023-04-27T09:33:12.081Z,19091.3574
2023-04-27T09:34:20.122Z,19094.0723
2023-04-27T09:35:28.358Z,19098.5000
2023-04-27T09:36:36.226Z,19094.5723
2023-04-27T09:37:44.426Z,19093.2148
2023-04-27T09:38:52.490Z,19098.4277
2023-04-27T09:40:00.449Z,19101.5000
2023-04-27T09:41:08.594Z,19098.7852
2023-04-27T09:42:16.515Z,19107.4277
2023-04-27T09:43:24.633Z,19109.7852
2023-04-27T09:44:32.917Z,19108.1426
2023-04-27T09:45:40.856Z,19113.4277
2023-04-27T09:46:48.743Z,19111.0723
2023-04-27T09:47:56.887Z,19112.4277
2023-04-27T09:49:04.843Z,19109.2852
2023-04-27T09:50:12.916Z,19108.1426
2023-04-27T09:51:21.071Z,19106.3574
2023-04-27T09:52:29.186Z,19103.8574
2023-04-27T09:53:37.077Z,19102.2148
2023-04-27T09:54:45.234Z,19102.5000
2023-04-27T09:55:53.435Z,19102.7852
2023-04-27T09:57:01.347Z,19100.0000
2023-04-27T09:58:09.375Z,19103.0723
2023-04-27T09:59:17.449Z,19098.9277
2023-04-27T10:00:25.469Z,19093.4277
2023-04-27T10:01:35.274Z,19090.4277
2023-04-27T10:02:53.068Z,19088.7324
2023-04-27T10:03:59.443Z,19085.5996
2023-04-27T10:05:07.364Z,19084.8574
2023-04-27T10:06:15.471Z,19078.1426
2023-04-27T10:07:23.566Z,19073.5000
2023-04-27T10:08:31.891Z,19080.0723
2023-04-27T10:09:39.670Z,19080.2852
2023-04-27T10:10:47.698Z,19079.0000
2023-04-27T10:11:55.727Z,19078.2148
2023-04-27T10:13:03.883Z,19080.6426
2023-04-27T10:14:11.790Z,19079.2148
2023-04-27T10:15:19.836Z,19082.2852
2023-04-27T10:16:27.909Z,19074.0723
2023-04-27T10:17:36.116Z,19073.0000
2023-04-27T10:18:44.052Z,19066.5723
2023-04-27T10:19:54.305Z,19061.5000
2023-04-27T10:21:05.024Z,19056.8008
2023-04-27T10:22:13.166Z,19046.6426
2023-04-27T10:23:21.361Z,19035.2852
2023-04-27T10:24:29.227Z,19026.3574
2023-04-27T10:25:37.323Z,19031.2852
2023-04-27T10:26:45.299Z,19031.5000
2023-04-27T10:27:53.370Z,19039.4277
2023-04-27T10:29:01.324Z,19043.3574
2023-04-27T10:30:09.405Z,19038.0000
2023-04-27T10:31:17.603Z,19036.6426
2023-04-27T10:32:25.683Z,19032.1426
2023-04-27T10:33:33.639Z,19036.0723
2023-04-27T10:34:41.662Z,19042.6426
2023-04-27T10:35:49.856Z,19049.3574
2023-04-27T10:36:57.788Z,19051.7852
2023-04-27T10:38:05.845Z,19058.8574
2023-04-27T10:39:14.217Z,19055.5723
2023-04-27T10:40:21.988Z,19055.2148
2023-04-27T10:41:30.099Z,19054.9277
2023-04-27T10:42:37.974Z,19044.0000
2023-04-27T10:43:46.035Z,19026.0723
2023-04-27T10:44:54.106Z,19015.8574
2023-04-27T10:46:02.346Z,19000.9277
2023-04-27T10:47:10.297Z,18990.1426
2023-04-27T10:48:18.270Z,18986.5723
2023-04-27T10:49:26.441Z,18979.7852
2023-04-27T10:50:34.607Z,18982.0000
2023-04-27T10:51:42.592Z,18974.2148
2023-04-27T10:52:50.636Z,18971.9277
2023-04-27T10:53:58.632Z,18969.1426
2023-04-27T10:55:06.679Z,18969.8574
2023-04-27T10:56:14.741Z,18967.4277
2023-04-27T10:57:22.712Z,18963.9277
2023-04-27T10:58:41.421Z,18958.0723
2023-04-27T10:59:43.960Z,18955.4004
2023-04-27T11:00:51.749Z,18948.2148
2023-04-27T11:01:59.884Z,18943.6426
2023-04-27T11:03:08.037Z,18933.0723
2023-04-27T11:04:16.478Z,18933.5723
2023-04-27T11:05:24.058Z,18930.0723
2023-04-27T11:06:32.194Z,18907.6426
2023-04-27T11:07:40.182Z,18883.2148
2023-04-27T11:08:48.231Z,18862.5723
2023-04-27T11:09:56.284Z,18844.4277
2023-04-27T11:11:04.241Z,18830.3574
2023-04-27T11:12:12.289Z,18825.2852
2023-04-27T11:13:20.393Z,18832.3574
2023-04-27T11:14:28.498Z,18844.5000
2023-04-27T11:15:36.624Z,18855.9277
2023-04-27T11:16:44.687Z,18873.7148
2023-04-27T11:17:52.729Z,18890.2852
2023-04-27T11:19:00.718Z,18910.0000
2023-04-27T11:20:08.801Z,18927.3574
2023-04-27T11:21:16.904Z,18946.2148
2023-04-27T11:22:24.880Z,18969.8574
2023-04-27T11:23:33.060Z,18978.7148
2023-04-27T11:24:40.999Z,18987.7148
2023-04-27T11:25:48.978Z,19004.5000
2023-04-27T11:26:57.074Z,19027.2148
2023-04-27T11:28:05.116Z,19040.9277
2023-04-27T11:29:13.653Z,19052.8574
2023-04-27T11:30:21.311Z,19063.1426
2023-04-27T11:31:29.402Z,19068.7852
2023-04-27T11:32:37.566Z,19060.0723
2023-04-27T11:33:45.457Z,19065.1426
2023-04-27T11:34:54.657Z,19056.8574
2023-04-27T11:36:06.432Z,19049.7324
2023-04-27T11:37:18.429Z,19050.5723
2023-04-27T11:38:27.487Z,19051.0664
2023-04-27T11:39:35.382Z,19054.2148
2023-04-27T11:40:43.435Z,19045.8574
2023-04-27T11:41:51.630Z,19041.1426
2023-04-27T11:42:59.675Z,19038.4277
2023-04-27T11:44:07.758Z,19043.5000
2023-04-27T11:45:15.787Z,19052.0723
2023-04-27T11:46:23.839Z,19072.0723
2023-04-27T11:47:31.935Z,19078.2148
2023-04-27T11:48:39.921Z,19082.2852
2023-04-27T11:49:47.998Z,19089.7852
2023-04-27T11:50:56.110Z,19090.0723
2023-04-27T11:52:04.093Z,19089.5000
2023-04-27T11:53:12.034Z,19082.9277
2023-04-27T11:54:20.082Z,19069.7148
2023-04-27T11:55:28.189Z,19074.5000
2023-04-27T11:56:36.470Z,19087.7852
2023-04-27T11:57:44.401Z,19088.2852
2023-04-27T11:58:52.314Z,19074.7852
2023-04-27T12:00:00.646Z,19065.3574
2023-04-27T12:01:08.587Z,19047.7852
2023-04-27T12:02:16.620Z,19007.2852
2023-04-27T12:03:24.984Z,18969.8574
2023-04-27T12:04:32.907Z,18943.8574
2023-04-27T12:05:40.954Z,18924.0723
2023-04-27T12:06:48.855Z,18896.2852
2023-04-27T12:07:56.877Z,18920.7148
2023-04-27T12:09:04.986Z,18953.6426
2023-04-27T12:10:12.879Z,18974.3574
2023-04-27T12:11:20.965Z,18972.0723
2023-04-27T12:12:29.034Z,18957.5723
2023-04-27T12:13:37.186Z,18926.5723
2023-04-27T12:14:45.352Z,18887.8574
2023-04-27T12:15:53.572Z,18860.7148
2023-04-27T12:17:01.473Z,18829.4277
2023-04-27T12:18:09.602Z,18813.2852
2023-04-27T12:19:17.640Z,18799.0723
2023-04-27T12:20:25.718Z,18781.5000
2023-04-27T12:21:33.611Z,18760.5000
2023-04-27T12:22:41.717Z,18746.0000
2023-04-27T12:23:49.863Z,18732.1426
2023-04-27T12:24:57.734Z,18711.5000
2023-04-27T12:26:05.806Z,18695.5723
2023-04-27T12:27:13.858Z,18680.5723
2023-04-27T12:28:22.003Z,18677.4277
2023-04-27T12:29:29.998Z,18660.7852
2023-04-27T12:30:38.156Z,18660.9277
2023-04-27T12:31:46.256Z,18651.0723
2023-04-27T12:32:54.416Z,18634.6426
2023-04-27T12:34:02.304Z,18627.3574
2023-04-27T12:35:10.494Z,18623.2852
2023-04-27T12:36:18.567Z,18621.5000